Terminal Aerodrome Forecast
Issued by NWS Newport/Morehead City, NC

Home | Current Version | Previous Version | Text Only | Print | Product List | Glossary On
Versions: 1 2 3 4 5 6 7 8 9 10 11 12 13 14 15 16
000
FTUS42 KMHX 260300 AAA
TAFEWN
TAF AMD
KEWN 260337Z 2604/2624 01005KT 4SM -RA BR OVC005
     FM261700 33012G17KT 5SM -RA BR OVC015
     FM262100 30010G16KT P6SM VCSH BKN015 BKN050=

USA.gov is the U.S. government's official web portal to all federal, state and local government web resources and services.